Time;durP1;ratioP1;P1;durP2;ratioP2;P2;SDS_P1;SDS_P2;PMS_P1;PMS_P2;Temp;Humidity;BMP_temperature;BMP_pressure;BME280_temperature;BME280_humidity;BME280_pressure;Samples;Min_cycle;Max_cycle;Signal;HPM_P1;HPM_P2
2021/03/01 00:01:36;;;;;;;16.10;8.23;;;;;;;-1.68;78.65;100567.28;5091901;28;20052;-81
2021/03/01 00:04:02;;;;;;;18.55;7.63;;;;;;;-1.74;79.06;100566.72;5086274;28;20133;-81
2021/03/01 00:06:29;;;;;;;13.33;7.27;;;;;;;-1.80;78.94;100568.72;5091616;28;20052;-81
2021/03/01 00:08:55;;;;;;;16.40;7.83;;;;;;;-1.84;78.64;100558.28;5085889;28;20052;-81
2021/03/01 00:11:22;;;;;;;15.47;7.17;;;;;;;-1.81;78.97;100561.69;5090587;28;20416;-81
2021/03/01 00:13:48;;;;;;;16.53;8.23;;;;;;;-1.86;79.32;100552.16;5088669;28;20083;-81
2021/03/01 00:16:15;;;;;;;19.93;7.90;;;;;;;-1.96;79.23;100551.72;5090985;28;20372;-81
2021/03/01 00:18:41;;;;;;;23.07;8.10;;;;;;;-1.88;79.33;100559.34;5092281;28;20052;-81
2021/03/01 00:21:07;;;;;;;15.20;7.67;;;;;;;-2.01;79.76;100549.25;5091253;28;20047;-82
2021/03/01 00:23:34;;;;;;;20.63;8.30;;;;;;;-2.09;79.73;100546.09;5091511;28;20101;-82
2021/03/01 00:26:00;;;;;;;17.73;8.20;;;;;;;-1.97;80.33;100564.19;5091029;28;20036;-81
2021/03/01 00:28:27;;;;;;;17.80;7.57;;;;;;;-1.90;79.06;100569.22;5091972;28;20056;-81
2021/03/01 00:30:54;;;;;;;13.37;6.97;;;;;;;-2.14;78.90;100556.97;5091427;28;20113;-81
2021/03/01 00:33:20;;;;;;;12.67;6.70;;;;;;;-2.22;78.95;100547.59;5091990;28;20055;-81
2021/03/01 00:35:46;;;;;;;11.83;6.50;;;;;;;-2.09;78.27;100556.75;5091541;28;20047;-81
2021/03/01 00:38:12;;;;;;;16.40;7.90;;;;;;;-2.19;78.34;100560.75;5091222;28;20118;-81
2021/03/01 00:40:39;;;;;;;12.93;6.83;;;;;;;-2.23;78.86;100565.38;5091541;28;20041;-81
2021/03/01 00:43:05;;;;;;;14.57;6.83;;;;;;;-2.23;79.23;100575.16;5091121;28;20048;-81
2021/03/01 00:45:33;;;;;;;12.87;6.53;;;;;;;-2.33;79.56;100572.91;5091794;28;20051;-81
2021/03/01 00:47:59;;;;;;;19.73;6.97;;;;;;;-2.56;79.39;100560.63;5091872;28;20040;-81
2021/03/01 00:50:26;;;;;;;10.63;6.13;;;;;;;-2.47;79.90;100567.31;5090920;28;20100;-81
2021/03/01 00:52:52;;;;;;;18.50;7.40;;;;;;;-2.36;79.53;100585.50;5091263;28;20040;-81
2021/03/01 00:55:18;;;;;;;16.13;7.10;;;;;;;-2.42;79.42;100565.31;5090936;28;20511;-81
2021/03/01 00:57:44;;;;;;;15.03;7.40;;;;;;;-2.47;80.32;100553.13;5091546;28;20105;-80
2021/03/01 01:00:14;;;;;;;16.37;7.37;;;;;;;-2.35;80.11;100579.22;5091062;28;20407;-80
2021/03/01 01:02:41;;;;;;;17.00;7.85;;;;;;;-2.41;80.07;100567.06;5091063;28;20052;-80
2021/03/01 01:05:08;;;;;;;17.93;7.93;;;;;;;-2.37;80.42;100578.44;5090883;28;20052;-80
2021/03/01 01:07:34;;;;;;;17.03;7.77;;;;;;;-2.65;80.88;100550.34;5090847;28;20047;-80
2021/03/01 01:10:01;;;;;;;15.57;7.50;;;;;;;-2.55;80.81;100561.47;5091369;28;20087;-81
2021/03/01 01:12:27;;;;;;;15.67;7.43;;;;;;;-2.71;80.81;100540.84;5090782;28;20059;-80
2021/03/01 01:14:54;;;;;;;16.57;7.53;;;;;;;-2.47;80.65;100577.97;5090754;28;20044;-81
2021/03/01 01:17:20;;;;;;;17.97;7.73;;;;;;;-2.68;80.45;100546.03;5089885;28;20055;-80
2021/03/01 01:19:47;;;;;;;18.03;7.47;;;;;;;-2.63;80.28;100543.16;5091005;28;20054;-81
2021/03/01 01:22:13;;;;;;;21.57;7.97;;;;;;;-2.63;80.78;100555.63;5090188;28;20432;-80
2021/03/01 01:24:40;;;;;;;14.77;7.73;;;;;;;-2.65;80.85;100562.78;5090788;28;20052;-80
2021/03/01 01:27:06;;;;;;;18.67;7.67;;;;;;;-2.75;80.74;100559.69;5090727;28;20052;-80
2021/03/01 01:29:32;;;;;;;16.67;6.63;;;;;;;-2.69;82.14;100572.72;5090899;28;20133;-80
2021/03/01 01:31:59;;;;;;;19.87;7.97;;;;;;;-2.73;81.48;100545.34;5090965;28;20496;-80
2021/03/01 01:34:25;;;;;;;16.17;7.63;;;;;;;-2.63;81.36;100559.13;5090276;28;20090;-80
2021/03/01 01:36:52;;;;;;;14.30;6.33;;;;;;;-2.78;80.69;100535.84;5090406;28;20484;-80
2021/03/01 01:39:18;;;;;;;21.00;6.73;;;;;;;-2.62;80.75;100560.00;5090899;28;20496;-80
2021/03/01 01:41:45;;;;;;;18.07;7.07;;;;;;;-2.79;80.10;100542.97;5090189;28;20052;-80
2021/03/01 01:44:11;;;;;;;18.10;6.97;;;;;;;-2.72;80.50;100559.53;5090044;28;20048;-80
2021/03/01 01:46:38;;;;;;;21.33;7.07;;;;;;;-2.87;80.19;100543.28;5090689;28;20044;-81
2021/03/01 01:49:04;;;;;;;16.70;6.93;;;;;;;-3.04;80.60;100535.16;5090610;28;20074;-80
2021/03/01 01:51:30;;;;;;;17.37;7.47;;;;;;;-2.86;80.60;100544.13;5090962;28;20044;-80
2021/03/01 01:53:58;;;;;;;12.60;7.00;;;;;;;-2.92;80.89;100550.63;5089859;28;20056;-80
2021/03/01 01:56:24;;;;;;;21.20;7.23;;;;;;;-2.90;80.96;100553.22;5090435;28;20117;-80
2021/03/01 01:58:51;;;;;;;14.90;6.93;;;;;;;-2.91;80.82;100538.16;5090090;28;20071;-80
2021/03/01 02:01:17;;;;;;;14.37;6.50;;;;;;;-2.86;80.24;100545.03;5090310;28;20058;-80
2021/03/01 02:03:48;;;;;;;12.53;6.10;;;;;;;-2.88;79.83;100527.38;5090235;28;20052;-80
2021/03/01 02:06:31;;;;;;;20.00;7.50;;;;;;;-2.96;79.64;100519.72;5089901;28;20040;-80
2021/03/01 02:09:13;;;;;;;17.30;6.50;;;;;;;-2.93;79.82;100529.38;5090664;28;20044;-80
2021/03/01 02:11:52;;;;;;;10.83;5.93;;;;;;;-3.04;80.17;100537.81;5083095;28;20131;-80
2021/03/01 02:14:27;;;;;;;13.13;6.63;;;;;;;-3.18;80.39;100522.44;5089089;28;20412;-80
2021/03/01 02:16:53;;;;;;;13.73;6.43;;;;;;;-3.15;80.21;100513.47;5089758;28;20415;-80
2021/03/01 02:19:21;;;;;;;18.93;7.53;;;;;;;-2.94;80.45;100538.28;5090231;28;20126;-80
2021/03/01 02:21:48;;;;;;;12.77;6.00;;;;;;;-2.98;80.68;100534.91;5090557;28;20056;-80
2021/03/01 02:24:17;;;;;;;18.83;7.33;;;;;;;-3.11;80.74;100520.38;5089894;28;20401;-80
2021/03/01 02:26:46;;;;;;;16.03;6.50;;;;;;;-3.07;80.13;100519.31;5090232;28;20040;-80
2021/03/01 02:29:18;;;;;;;13.02;5.53;;;;;;;-3.11;80.34;100539.00;5089658;28;20043;-80
2021/03/01 02:31:46;;;;;;;17.67;6.70;;;;;;;-3.46;80.49;100490.78;5089364;28;20450;-80
2021/03/01 02:34:16;;;;;;;18.77;7.63;;;;;;;-3.39;81.75;100511.78;5089971;28;20499;-80
2021/03/01 02:36:47;;;;;;;19.23;7.82;;;;;;;-3.36;81.81;100512.56;5090287;28;20048;-80
2021/03/01 02:39:17;;;;;;;12.87;6.43;;;;;;;-3.34;82.17;100535.50;5090397;28;20051;-81
2021/03/01 02:41:44;;;;;;;15.53;7.03;;;;;;;-3.45;82.16;100501.34;5084493;28;20059;-80
2021/03/01 02:44:11;;;;;;;16.30;6.77;;;;;;;-3.27;81.81;100534.31;5090204;28;20278;-80
2021/03/01 02:46:38;;;;;;;18.10;7.43;;;;;;;-3.33;80.91;100513.28;5081652;28;20044;-80
2021/03/01 02:49:06;;;;;;;18.57;8.20;;;;;;;-3.35;80.69;100506.31;5094013;28;20052;-80
2021/03/01 02:51:36;;;;;;;15.60;8.17;;;;;;;-3.21;80.83;100531.41;5093939;28;20084;-80
2021/03/01 02:54:03;;;;;;;19.95;7.95;;;;;;;-3.24;80.89;100533.31;5094173;28;20249;-80
2021/03/01 02:56:32;;;;;;;15.23;7.07;;;;;;;-3.29;81.05;100530.00;5093138;28;20071;-80
2021/03/01 02:58:59;;;;;;;14.17;6.87;;;;;;;-3.50;80.94;100508.66;5093477;28;20052;-80
2021/03/01 03:01:26;;;;;;;18.30;7.50;;;;;;;-3.29;81.04;100535.31;5093832;28;20036;-80
2021/03/01 03:03:54;;;;;;;15.17;6.83;;;;;;;-3.27;80.86;100528.13;5093100;28;20078;-80
2021/03/01 03:06:23;;;;;;;17.30;7.53;;;;;;;-3.42;81.34;100511.00;5092990;28;20051;-80
2021/03/01 03:08:51;;;;;;;16.75;8.38;;;;;;;-3.42;81.70;100530.50;5093782;28;20044;-80
2021/03/01 03:11:18;;;;;;;15.77;7.00;;;;;;;-3.58;81.01;100505.47;5093854;28;20385;-80
2021/03/01 03:13:48;;;;;;;15.63;7.07;;;;;;;-3.38;81.37;100515.28;5093090;28;20407;-80
2021/03/01 03:16:15;;;;;;;15.43;7.20;;;;;;;-3.57;81.94;100507.19;5091850;28;20048;-79
2021/03/01 03:18:43;;;;;;;14.17;6.77;;;;;;;-3.43;81.53;100522.59;5092365;28;20048;-80
2021/03/01 03:21:10;;;;;;;15.80;6.87;;;;;;;-3.66;81.45;100505.75;5093049;28;20382;-80
2021/03/01 03:23:36;;;;;;;14.90;7.00;;;;;;;-3.46;80.92;100518.25;5093131;28;20131;-80
2021/03/01 03:26:03;;;;;;;16.77;7.43;;;;;;;-3.44;81.19;100520.84;5092351;28;20055;-80
2021/03/01 03:28:29;;;;;;;16.27;7.30;;;;;;;-3.61;81.88;100509.09;5093340;28;20063;-80
2021/03/01 03:30:56;;;;;;;19.17;7.47;;;;;;;-3.67;82.09;100488.09;5093094;28;20055;-80
2021/03/01 03:33:23;;;;;;;15.67;7.37;;;;;;;-3.69;81.98;100515.66;5092637;28;20538;-80
2021/03/01 03:35:49;;;;;;;20.13;7.57;;;;;;;-3.65;82.23;100526.09;5092150;28;20044;-80
2021/03/01 03:38:22;;;;;;;14.23;7.03;;;;;;;-3.79;82.72;100517.81;5092967;28;20048;-80
2021/03/01 03:40:54;;;;;;;15.30;6.80;;;;;;;-3.70;82.85;100544.03;5093029;28;20522;-80
2021/03/01 03:43:22;;;;;;;15.37;6.57;;;;;;;-3.77;83.70;100519.47;5092561;28;20112;-80
2021/03/01 03:45:52;;;;;;;12.60;6.30;;;;;;;-3.83;82.90;100498.47;5092650;28;20048;-80
2021/03/01 03:48:22;;;;;;;13.80;6.70;;;;;;;-3.74;82.67;100503.41;5091271;28;20105;-80
2021/03/01 03:50:50;;;;;;;20.37;8.33;;;;;;;-3.76;82.47;100499.09;5093040;28;20055;-80
2021/03/01 03:53:18;;;;;;;16.80;8.60;;;;;;;-3.91;82.50;100492.59;5092375;28;20048;-80
2021/03/01 03:55:48;;;;;;;13.37;7.23;;;;;;;-3.80;82.92;100514.28;5092102;28;20090;-80
2021/03/01 03:58:19;;;;;;;18.13;7.37;;;;;;;-3.79;82.92;100524.00;5091509;28;20051;-80
2021/03/01 04:00:49;;;;;;;16.13;7.30;;;;;;;-3.72;82.46;100526.41;5092009;28;20048;-79
2021/03/01 04:03:16;;;;;;;15.60;7.20;;;;;;;-3.72;82.62;100513.97;5092624;28;20055;-80
2021/03/01 04:05:47;;;;;;;19.37;7.87;;;;;;;-3.82;82.69;100515.28;5091646;28;20055;-80
2021/03/01 04:08:15;;;;;;;18.33;7.47;;;;;;;-3.74;82.33;100511.38;5092158;28;20056;-80
2021/03/01 04:10:43;;;;;;;19.17;7.90;;;;;;;-3.84;82.44;100483.47;5092062;28;20117;-79
2021/03/01 04:13:13;;;;;;;17.87;7.87;;;;;;;-3.70;82.64;100508.59;5092079;28;20048;-80
2021/03/01 04:15:43;;;;;;;19.83;7.55;;;;;;;-3.66;83.11;100518.19;5091872;28;20052;-80
2021/03/01 04:18:11;;;;;;;18.30;7.87;;;;;;;-3.74;83.37;100516.69;5090863;28;20051;-80
2021/03/01 04:20:40;;;;;;;16.77;7.23;;;;;;;-3.81;83.03;100522.31;5092127;28;20048;-80
2021/03/01 04:23:08;;;;;;;16.30;7.50;;;;;;;-4.02;83.11;100484.16;5091284;28;20048;-80
2021/03/01 04:25:35;;;;;;;17.23;8.53;;;;;;;-3.94;83.72;100506.84;5091180;28;20075;-80
2021/03/01 04:28:03;;;;;;;16.20;7.43;;;;;;;-3.97;83.77;100498.16;5091434;28;20051;-80
2021/03/01 04:30:30;;;;;;;16.43;7.30;;;;;;;-3.76;83.25;100533.66;5092014;28;20044;-80
2021/03/01 04:32:59;;;;;;;22.57;7.63;;;;;;;-3.96;83.39;100510.50;5091557;28;20169;-80
2021/03/01 04:35:27;;;;;;;17.77;7.78;;;;;;;-3.91;83.05;100500.56;5091784;28;20051;-80
2021/03/01 04:37:53;;;;;;;15.50;6.77;;;;;;;-3.76;82.89;100545.13;5090875;28;20404;-80
2021/03/01 04:40:21;;;;;;;15.10;6.77;;;;;;;-3.97;83.38;100493.69;5090952;28;20052;-80
2021/03/01 04:42:49;;;;;;;20.37;7.67;;;;;;;-3.77;82.86;100521.28;5091765;28;20044;-79
2021/03/01 04:45:16;;;;;;;13.77;6.97;;;;;;;-3.78;83.12;100519.53;5090466;28;20051;-80
2021/03/01 04:47:43;;;;;;;18.00;7.30;;;;;;;-3.79;82.71;100521.34;5091431;28;20593;-79
2021/03/01 04:50:12;;;;;;;16.17;7.00;;;;;;;-4.06;82.88;100501.13;5090544;28;20496;-80
2021/03/01 04:52:39;;;;;;;18.47;7.60;;;;;;;-3.92;82.99;100517.44;5091356;28;20048;-80
2021/03/01 04:55:09;;;;;;;17.73;8.20;;;;;;;-3.89;82.86;100535.91;5090449;28;20051;-80
2021/03/01 04:57:38;;;;;;;21.57;8.60;;;;;;;-3.96;82.60;100518.47;5091270;28;20052;-80
2021/03/01 05:00:07;;;;;;;15.35;8.35;;;;;;;-4.02;82.30;100508.06;5090773;28;20052;-80
2021/03/01 05:02:33;;;;;;;12.80;6.90;;;;;;;-4.02;82.53;100537.28;5090848;28;20135;-80
2021/03/01 05:05:01;;;;;;;15.70;7.07;;;;;;;-4.09;81.75;100524.25;5090900;28;20044;-79
2021/03/01 05:07:30;;;;;;;20.57;8.00;;;;;;;-4.23;82.30;100508.00;5090937;28;20044;-80
2021/03/01 05:09:58;;;;;;;18.65;7.97;;;;;;;-4.02;82.61;100548.81;5090603;28;20036;-79
2021/03/01 05:12:24;;;;;;;16.63;7.63;;;;;;;-4.09;82.55;100531.38;5090123;28;20048;-80
2021/03/01 05:14:52;;;;;;;21.63;9.10;;;;;;;-3.99;82.01;100532.75;5078972;28;20467;-80
2021/03/01 05:17:18;;;;;;;18.10;8.47;;;;;;;-4.00;81.60;100532.81;5090050;28;20051;-80
2021/03/01 05:19:44;;;;;;;21.17;8.10;;;;;;;-4.11;81.88;100517.25;5090864;28;20052;-80
2021/03/01 05:22:11;;;;;;;15.83;8.00;;;;;;;-4.07;81.56;100524.19;5090725;28;20400;-81
2021/03/01 05:24:38;;;;;;;14.23;7.97;;;;;;;-4.12;81.69;100524.38;5090757;28;20051;-80
2021/03/01 05:27:04;;;;;;;25.40;9.33;;;;;;;-4.27;82.33;100506.38;5090842;28;20400;-80
2021/03/01 05:29:30;;;;;;;29.03;8.63;;;;;;;-4.24;82.32;100531.94;5090392;28;20054;-80
2021/03/01 05:31:58;;;;;;;17.00;8.40;;;;;;;-4.22;82.54;100544.22;5090778;28;20056;-80
2021/03/01 05:34:24;;;;;;;14.57;6.70;;;;;;;-4.28;82.18;100529.38;5090384;28;20085;-80
2021/03/01 05:36:50;;;;;;;13.47;7.43;;;;;;;-4.45;82.66;100507.91;5091281;28;20044;-80
2021/03/01 05:39:16;;;;;;;15.93;7.10;;;;;;;-4.33;82.69;100525.19;5090806;28;20052;-80
2021/03/01 05:41:47;;;;;;;16.23;7.07;;;;;;;-4.18;82.11;100540.53;5090607;28;20052;-79
2021/03/01 05:44:14;;;;;;;18.47;6.97;;;;;;;-4.28;82.42;100531.19;5089957;28;20113;-80
2021/03/01 05:46:42;;;;;;;24.93;7.13;;;;;;;-4.28;81.91;100533.84;5090663;28;20101;-80
2021/03/01 05:49:10;;;;;;;16.63;7.80;;;;;;;-4.43;82.56;100526.44;5090457;28;20101;-80
2021/03/01 05:51:39;;;;;;;23.33;6.93;;;;;;;-4.49;82.18;100524.88;5090506;28;20044;-80
2021/03/01 05:54:07;;;;;;;14.30;6.93;;;;;;;-4.49;82.25;100520.41;5090769;28;20526;-80
2021/03/01 05:56:35;;;;;;;24.27;6.97;;;;;;;-4.29;82.59;100548.03;5090824;28;20109;-80
2021/03/01 05:59:02;;;;;;;17.40;7.37;;;;;;;-4.23;82.18;100545.16;5090633;28;20093;-80
2021/03/01 06:01:31;;;;;;;18.67;7.37;;;;;;;-4.31;82.65;100563.16;5089054;28;20056;-80
2021/03/01 06:03:58;;;;;;;16.45;7.45;;;;;;;-4.36;82.21;100558.00;5090547;28;20436;-79
2021/03/01 06:06:25;;;;;;;23.13;8.80;;;;;;;-4.45;82.76;100524.69;5090348;28;20074;-80
2021/03/01 06:08:51;;;;;;;17.50;8.10;;;;;;;-4.24;82.40;100558.50;5100398;28;20048;-80
2021/03/01 06:11:18;;;;;;;16.20;7.40;;;;;;;-4.38;82.35;100543.94;5089341;28;20040;-81
2021/03/01 06:13:44;;;;;;;17.13;7.00;;;;;;;-4.27;82.07;100557.69;5081574;28;20101;-80
2021/03/01 06:16:10;;;;;;;19.40;7.67;;;;;;;-4.40;82.18;100539.59;5089973;28;20070;-79
2021/03/01 06:18:44;;;;;;;16.97;7.43;;;;;;;-4.24;81.85;100569.13;5089189;28;20040;-79
2021/03/01 06:21:12;;;;;;;16.07;8.17;;;;;;;-4.31;81.83;100549.88;5090136;28;20515;-80
2021/03/01 06:23:40;;;;;;;18.53;8.20;;;;;;;-4.25;82.34;100564.72;5093463;28;20094;-80
2021/03/01 06:26:24;;;;;;;17.97;7.40;;;;;;;-4.17;81.83;100559.97;5083315;28;20484;-80
2021/03/01 06:28:52;;;;;;;13.87;7.03;;;;;;;-4.23;82.22;100555.78;5092067;28;20048;-80
2021/03/01 06:31:37;;;;;;;19.70;7.67;;;;;;;-4.27;81.87;100541.75;5091757;28;20286;-80
2021/03/01 06:34:22;;;;;;;22.13;8.53;;;;;;;-4.35;82.23;100537.63;5084718;28;20086;-79
2021/03/01 06:37:07;;;;;;;28.10;8.30;;;;;;;-4.24;81.82;100558.50;5092872;28;20048;-80
2021/03/01 06:39:37;;;;;;;22.40;8.80;;;;;;;-4.14;81.91;100583.78;5085832;28;20515;-79
2021/03/01 06:42:28;;;;;;;20.30;7.97;;;;;;;-4.17;82.16;100570.59;5093178;28;20048;-80
2021/03/01 06:45:27;;;;;;;14.00;7.33;;;;;;;-4.18;82.81;100569.75;5072235;28;20059;-80
2021/03/01 06:47:55;;;;;;;17.85;7.63;;;;;;;-4.14;82.52;100571.38;5049707;28;20045;-79
2021/03/01 06:50:33;;;;;;;12.57;6.83;;;;;;;-4.00;83.07;100575.31;5050197;28;20045;-80
2021/03/01 06:53:05;;;;;;;23.60;7.77;;;;;;;-3.96;82.95;100569.81;5071283;28;20052;-80
2021/03/01 06:55:32;;;;;;;18.97;8.20;;;;;;;-3.77;82.83;100580.59;5090581;28;20047;-80
2021/03/01 06:58:15;;;;;;;22.23;7.60;;;;;;;-3.78;83.34;100562.94;5093221;28;20048;-80
2021/03/01 07:00:42;;;;;;;19.30;7.93;;;;;;;-3.57;83.48;100578.97;5090508;28;20400;-80
2021/03/01 07:03:20;;;;;;;17.10;8.23;;;;;;;-3.35;82.90;100571.00;5092754;28;20040;-79
2021/03/01 07:05:51;;;;;;;17.07;7.63;;;;;;;-3.10;81.54;100568.22;5092091;28;20127;-80
2021/03/01 07:08:34;;;;;;;21.37;8.50;;;;;;;-3.03;81.77;100577.69;5091968;28;20135;-79
2021/03/01 07:11:03;;;;;;;20.10;8.37;;;;;;;-3.05;81.93;100576.00;5091912;28;20044;-80
2021/03/01 07:13:30;;;;;;;18.63;8.80;;;;;;;-2.97;82.11;100586.31;5093000;28;20049;-80
2021/03/01 07:15:57;;;;;;;25.30;9.03;;;;;;;-3.08;82.50;100569.00;5091221;28;20048;-80
2021/03/01 07:18:25;;;;;;;30.07;9.97;;;;;;;-2.89;82.82;100590.41;5089858;28;20044;-79
2021/03/01 07:20:53;;;;;;;27.80;9.53;;;;;;;-2.97;83.05;100581.00;5092584;28;20502;-79
2021/03/01 07:23:21;;;;;;;25.53;9.70;;;;;;;-2.80;83.07;100594.47;5091704;28;20036;-79
2021/03/01 07:25:48;;;;;;;25.03;8.20;;;;;;;-2.84;82.77;100582.22;5092269;28;20051;-79
2021/03/01 07:28:18;;;;;;;21.20;7.80;;;;;;;-2.69;83.86;100588.69;5095112;28;20400;-79
2021/03/01 07:30:48;;;;;;;34.00;9.73;;;;;;;-2.77;83.78;100566.84;5094686;28;20096;-79
2021/03/01 07:33:15;;;;;;;46.70;9.63;;;;;;;-2.57;83.31;100568.66;5092289;28;20043;-80
2021/03/01 07:35:42;;;;;;;64.37;13.03;;;;;;;-2.38;82.78;100582.03;5091827;28;20044;-79
2021/03/01 07:38:08;;;;;;;53.90;12.83;;;;;;;-2.41;82.87;100560.84;5090860;28;20059;-79
2021/03/01 07:40:35;;;;;;;27.23;10.00;;;;;;;-2.26;83.68;100576.16;5092721;28;20325;-79
2021/03/01 07:43:02;;;;;;;18.33;9.27;;;;;;;-2.27;83.86;100558.44;5092191;28;20044;-79
2021/03/01 07:45:31;;;;;;;25.87;8.33;;;;;;;-2.09;83.60;100563.88;5091617;28;20561;-79
2021/03/01 07:48:00;;;;;;;26.83;10.23;;;;;;;-1.91;83.55;100573.69;5090972;28;20472;-79
2021/03/01 07:50:34;;;;;;;27.38;9.52;;;;;;;-1.77;83.43;100585.53;5092366;28;20048;-79
2021/03/01 07:53:00;;;;;;;28.07;8.77;;;;;;;-1.84;83.38;100575.13;5092442;28;20048;-79
2021/03/01 07:55:26;;;;;;;21.27;8.90;;;;;;;-1.82;83.22;100559.09;5091365;28;20059;-79
2021/03/01 07:58:01;;;;;;;21.80;9.90;;;;;;;-1.55;82.77;100596.94;5092505;28;20056;-79
2021/03/01 08:00:29;;;;;;;24.80;10.57;;;;;;;-1.66;83.00;100561.88;5091644;28;20075;-79
2021/03/01 08:02:57;;;;;;;47.17;10.07;;;;;;;-1.34;82.26;100599.47;5091354;28;20435;-79
2021/03/01 08:05:27;;;;;;;22.63;10.37;;;;;;;-1.18;81.78;100583.59;5091360;28;20056;-79
2021/03/01 08:07:54;;;;;;;30.45;11.27;;;;;;;-1.30;81.14;100563.72;5091443;28;20055;-79
2021/03/01 08:10:44;;;;;;;29.27;11.30;;;;;;;-1.20;80.83;100562.34;5091716;28;20064;-79
2021/03/01 08:13:11;;;;;;;28.03;10.53;;;;;;;-0.94;80.77;100582.38;5071626;28;20109;-79
2021/03/01 08:15:42;;;;;;;27.17;12.60;;;;;;;-0.85;80.53;100577.53;5079733;28;20094;-79
2021/03/01 08:18:11;;;;;;;43.33;19.10;;;;;;;-0.75;80.05;100585.00;5071448;28;20059;-79
2021/03/01 08:20:55;;;;;;;32.38;14.88;;;;;;;-0.65;80.68;100584.53;5075647;28;20484;-79
2021/03/01 08:23:30;;;;;;;29.20;13.10;;;;;;;-0.50;80.00;100574.88;5091420;28;20044;-80
2021/03/01 08:25:58;;;;;;;25.87;12.83;;;;;;;-0.47;79.58;100572.88;5091235;28;20048;-79
2021/03/01 08:28:44;;;;;;;26.00;11.57;;;;;;;-0.30;79.35;100576.47;5090786;28;20043;-79
2021/03/01 08:31:40;;;;;;;23.47;11.33;;;;;;;-0.30;78.19;100561.34;5091198;28;20048;-80
2021/03/01 08:34:34;;;;;;;25.33;10.93;;;;;;;-0.09;78.66;100575.38;5090914;28;20056;-80
2021/03/01 08:37:02;;;;;;;20.03;10.33;;;;;;;-0.07;78.55;100575.28;5088939;28;20047;-80
2021/03/01 08:39:52;;;;;;;23.23;11.07;;;;;;;0.13;78.42;100571.53;5091023;28;20082;-80
2021/03/01 08:42:50;;;;;;;37.03;12.03;;;;;;;0.14;77.81;100557.22;5091352;28;20051;-80
2021/03/01 08:45:21;;;;;;;19.33;9.90;;;;;;;0.17;77.25;100543.66;5089095;28;20052;-81
2021/03/01 08:47:49;;;;;;;19.77;9.67;;;;;;;0.31;77.84;100551.78;5090600;28;20465;-81
2021/03/01 08:50:21;;;;;;;25.97;10.50;;;;;;;0.48;77.31;100564.25;5090807;28;20097;-81
2021/03/01 08:52:48;;;;;;;25.77;10.03;;;;;;;0.47;76.55;100541.09;5091242;28;20060;-81
2021/03/01 08:55:17;;;;;;;24.73;10.27;;;;;;;0.60;77.31;100533.22;5090219;28;20135;-81
2021/03/01 08:58:00;;;;;;;19.37;9.70;;;;;;;0.81;76.43;100538.28;5090928;28;20040;-81
2021/03/01 09:00:28;;;;;;;20.97;10.13;;;;;;;0.93;76.08;100545.59;5090731;28;20408;-82
2021/03/01 09:03:32;;;;;;;20.63;9.70;;;;;;;1.16;76.16;100554.09;5090971;28;20046;-82
2021/03/01 09:06:08;;;;;;;17.73;9.37;;;;;;;1.37;75.64;100565.38;5089909;28;20431;-82
2021/03/01 09:08:36;;;;;;;22.53;9.67;;;;;;;1.27;75.04;100521.34;5090801;28;20484;-82
2021/03/01 09:11:05;;;;;;;22.97;9.37;;;;;;;1.49;75.65;100526.25;5090039;28;20249;-82
2021/03/01 09:13:36;;;;;;;24.23;11.32;;;;;;;1.70;75.81;100546.41;5091207;28;20386;-82
2021/03/01 09:16:07;;;;;;;17.13;9.27;;;;;;;1.92;74.63;100550.44;5090213;28;20056;-82
2021/03/01 09:18:34;;;;;;;18.38;9.00;;;;;;;2.04;75.18;100540.75;5068634;28;20488;-83
2021/03/01 09:21:01;;;;;;;18.27;10.23;;;;;;;2.09;75.91;100533.28;5071004;28;20052;-82
2021/03/01 09:23:42;;;;;;;23.58;11.10;;;;;;;2.33;76.34;100546.09;5086557;28;20048;-82
2021/03/01 09:26:18;;;;;;;21.75;10.20;;;;;;;2.29;75.75;100518.59;5090099;28;20090;-82
2021/03/01 09:28:45;;;;;;;23.20;10.70;;;;;;;2.50;75.84;100524.41;5090316;28;20051;-82
2021/03/01 09:31:14;;;;;;;20.75;11.50;;;;;;;2.63;74.75;100522.66;5091133;28;20040;-83
2021/03/01 09:33:42;;;;;;;22.08;10.27;;;;;;;2.67;73.59;100517.06;5090795;28;20044;-82
2021/03/01 09:36:10;;;;;;;18.20;10.00;;;;;;;2.99;73.31;100531.03;5090612;28;20048;-83
2021/03/01 09:38:40;;;;;;;20.67;10.93;;;;;;;3.16;72.33;100532.56;5089586;28;20044;-83
2021/03/01 09:41:08;;;;;;;15.25;8.65;;;;;;;3.24;71.03;100524.88;5090900;28;20473;-83
2021/03/01 09:43:35;;;;;;;17.73;8.45;;;;;;;3.44;69.18;100520.81;5083862;28;20405;-83
2021/03/01 09:46:03;;;;;;;21.55;10.07;;;;;;;3.57;68.39;100511.88;5088406;28;20044;-83
2021/03/01 09:48:33;;;;;;;15.32;8.15;;;;;;;3.69;68.21;100511.06;5091063;28;20056;-83
2021/03/01 09:50:59;;;;;;;;;;;;;;;3.83;68.54;100516.31;5091387;28;20523;-83
2021/03/01 09:53:28;;;;;;;17.92;8.15;;;;;;;3.78;69.19;100493.38;5091266;28;19920;-83
2021/03/01 09:55:55;;;;;;;17.23;8.48;;;;;;;3.99;67.44;100515.22;5089810;28;20477;-83
2021/03/01 09:58:30;;;;;;;15.32;8.02;;;;;;;4.25;66.58;100518.72;5094579;28;20500;-82
2021/03/01 10:01:07;;;;;;;15.48;8.38;;;;;;;4.36;67.59;100523.34;5093959;28;20535;-83
2021/03/01 10:03:41;;;;;;;14.85;8.45;;;;;;;4.50;66.79;100520.50;5091569;28;20059;-83
2021/03/01 10:06:08;;;;;;;16.10;8.18;;;;;;;4.57;65.55;100510.97;5073700;28;20056;-83
2021/03/01 10:08:36;;;;;;;18.20;8.48;;;;;;;4.58;64.02;100515.41;5088021;28;20052;-83
2021/03/01 10:11:04;;;;;;;15.25;7.57;;;;;;;4.82;63.73;100514.56;5094635;28;20076;-83
2021/03/01 10:13:33;;;;;;;14.05;7.47;;;;;;;4.77;63.73;100482.56;5094054;28;20048;-83
2021/03/01 10:16:00;;;;;;;12.15;7.10;;;;;;;5.03;63.10;100495.91;5093627;28;20052;-84
2021/03/01 10:18:28;;;;;;;22.00;8.48;;;;;;;5.29;61.27;100493.06;5092206;28;20048;-83
2021/03/01 10:20:58;;;;;;;23.75;8.13;;;;;;;5.13;61.86;100467.28;5093848;28;20500;-83
2021/03/01 10:23:36;;;;;;;14.25;6.93;;;;;;;5.44;60.08;100494.56;5094400;28;20056;-83
2021/03/01 10:26:14;;;;;;;30.92;8.20;;;;;;;5.44;59.46;100462.19;5093662;28;20048;-84
2021/03/01 10:28:41;;;;;;;12.02;6.93;;;;;;;5.83;57.70;100489.69;5094601;28;20060;-84
2021/03/01 10:31:10;;;;;;;14.65;6.30;;;;;;;5.95;57.23;100504.06;5093947;28;20074;-84
2021/03/01 10:33:58;;;;;;;13.82;6.65;;;;;;;5.97;57.13;100483.22;5093583;28;20426;-84
2021/03/01 10:36:29;;;;;;;13.27;7.30;;;;;;;6.23;57.02;100480.25;5093505;28;20051;-83
2021/03/01 10:39:16;;;;;;;13.65;6.72;;;;;;;6.34;56.77;100480.25;5092758;28;20048;-84
2021/03/01 10:42:11;;;;;;;12.63;6.35;;;;;;;6.42;56.02;100468.81;5084898;28;20051;-84
2021/03/01 10:44:41;;;;;;;12.13;6.25;;;;;;;6.49;56.17;100461.09;5076681;28;20229;-84
2021/03/01 10:47:16;;;;;;;10.25;5.68;;;;;;;6.79;53.08;100463.06;5093678;28;20044;-84
2021/03/01 10:49:43;;;;;;;11.00;5.25;;;;;;;6.72;54.04;100464.56;5093013;28;20063;-84
2021/03/01 10:52:13;;;;;;;9.13;5.75;;;;;;;6.71;53.20;100479.94;5093100;28;20523;-84
2021/03/01 10:54:40;;;;;;;12.90;6.13;;;;;;;6.76;53.33;100474.16;5092727;28;20150;-84
2021/03/01 10:57:08;;;;;;;19.02;6.45;;;;;;;6.74;54.12;100449.06;5093346;28;20048;-84
2021/03/01 10:59:35;;;;;;;11.27;6.57;;;;;;;6.92;52.90;100460.19;5093198;28;20446;-84
2021/03/01 11:02:01;;;;;;;17.17;5.93;;;;;;;7.20;53.29;100465.97;5093185;28;20048;-83
2021/03/01 11:04:28;;;;;;;15.55;5.95;;;;;;;7.21;53.71;100459.53;5091926;28;20404;-84
2021/03/01 11:06:55;;;;;;;75.53;9.35;;;;;;;7.44;50.65;100457.56;5092711;28;20408;-83
2021/03/01 11:09:22;;;;;;;8.63;4.80;;;;;;;7.65;48.90;100464.78;5092211;28;20496;-84
2021/03/01 11:11:50;;;;;;;10.20;5.22;;;;;;;7.54;49.00;100433.25;5093787;28;20064;-84
2021/03/01 11:14:22;;;;;;;8.85;4.93;;;;;;;7.71;49.28;100451.59;5091180;28;20047;-84
2021/03/01 11:16:48;;;;;;;8.73;5.10;;;;;;;7.49;49.85;100414.72;5092684;28;20044;-84
2021/03/01 11:19:16;;;;;;;12.77;5.60;;;;;;;7.70;47.83;100449.88;5085506;28;20400;-84
2021/03/01 11:21:43;;;;;;;13.73;5.72;;;;;;;7.75;49.90;100442.22;5093048;28;20047;-83
2021/03/01 11:24:11;;;;;;;9.70;5.50;;;;;;;7.92;50.12;100437.16;5092101;28;20412;-84
2021/03/01 11:26:38;;;;;;;10.80;5.68;;;;;;;7.92;48.27;100426.34;5092683;28;20036;-84
2021/03/01 11:29:05;;;;;;;11.05;4.88;;;;;;;8.14;47.45;100434.25;5093423;28;20075;-84
2021/03/01 11:31:33;;;;;;;15.82;5.18;;;;;;;8.16;48.25;100428.69;5092458;28;20055;-84